KBBD

Details ICAO KBBD
Name CURTIS FLD
Region United States
Timezone America/Chicago (UTC-5.0)
Plans Departing 2
Arriving 4
Stats Elevation 1,827 ft / 557 m (AMSL)
Location 31.179439° -99.323814°
Runways 2
Magnetic Variation 4.684° E
Sunrise 2018-05-23 11:38:35 UTC / 2018-05-23 06:38:35 Local
Sunset 2018-05-24 01:32:25 UTC / 2018-05-23 20:32:25 Local
Advertisement - Login to hide

Runways

ID Width Length Bearing (true) Bearing (mag) Surface Threshold Offset Overrun Length
08 110 ft / 34 m 3,514 ft / 1,071 m 91.01° 86.33° Grass 0 ft / 0 m 0 ft / 0 m
17 75 ft / 23 m 4,619 ft / 1,408 m 180.14° 175.46° Asphalt 583 ft / 178 m 0 ft / 0 m
26 110 ft / 34 m 3,514 ft / 1,071 m 271.01° 266.33° Grass 0 ft / 0 m 0 ft / 0 m
35 75 ft / 23 m 4,619 ft / 1,408 m 0.14° 355.46° Asphalt 0 ft / 0 m 0 ft / 0 m

Map

Weather


0- 5 10 15 20 25 30 35+ Temperature / ° C

Clouds and Precipitation
Forecast for 2018-05-23 12:00 UTC. Updated 3 minutes ago

Ground ~20,000 ft ~40,000 ft Winds

METAR

KBBD 230915Z AUTO 16006KT 10SM CLR 20/18 A3000 RMK AO2

TAF

KBBD 230538Z 2306/2406 14009KT P6SM SCT250 FM231100 VRB04KT P6SM BKN015 FM231500 15007KT P6SM SCT025 FM231800 15009KT P6SM SCT060 FM240100 13006KT P6SM FEW250

Frequencies

Recorded 118.37 MHz AWOS 3
Unicom 122.80 MHz CTAF/UNICOM
Warning: Do not use this data for real-world aviation or navigation. No guarantee of current accuracy is given.